Nearby METAR Reports

 

KIMT - Iron Mountain, Michigan, USA
Distance from station: 0 29mi, 47km
Updated: Fri, 07-Aug-2020 9:54am CDT
Clear
Clear
 Wind from S
Wind: S 7 mph , 11 km/h
Temperature: 75°F , 24°C
Dew Point: 55°F , 13°C
Humidity: 50%
Barometer: 30.14 inHg , 1020.7 hPa
Clouds: Clear
Visibility: 10 miles , 16 km
2020/08/07 14:54 KIMT 071454Z AUTO 17006KT 10SM CLR 24/13 A3014 RMK AO2 SLP202 T02390133 57006
KMNM - Menominee, Michigan, USA
Distance from station: SE 31mi, 51km
Updated: Fri, 07-Aug-2020 9:56am CDT
Clear
Clear
 Wind from S
Wind: S 6 mph , 9 km/h
Temperature: 72°F , 22°C
Dew Point: 61°F , 16°C
Humidity: 69%
Barometer: 30.17 inHg , 1021.7 hPa
Clouds: Clear
Visibility: 10 miles , 16 km
2020/08/07 14:56 KMNM 071456Z AUTO 18005KT 10SM CLR 22/16 A3017 RMK AO2 SLP211 T02170161 58002 $
 
KOCQ - Oconto, Wisconsin, USA
Distance from station: SSE 38mi, 61km
Updated: Fri, 07-Aug-2020 9:55am CDT
Clear
Clear
 Wind from SSE
Wind: SSE 7 mph , 11 km/h
Temperature: 70°F , 21°C
Dew Point: 63°F , 17°C
Humidity: 78%
Barometer: 30.16 inHg , 1021.3 hPa
Clouds: Clear
Visibility: 10 miles , 16 km
2020/08/07 14:55 KOCQ 071455Z AUTO 16006KT 10SM CLR 21/17 A3016 RMK AO1 T02120165
KEZS - Shawano Muni, Wisconsin, USA
Distance from station: SSW 48mi, 77km
Updated: Fri, 07-Aug-2020 9:55am CDT
Clear
Clear
 Wind from calm
Wind: Calm
Temperature: 73°F , 23°C
Dew Point: 63°F , 17°C
Humidity: 69%
Barometer: 30.16 inHg , 1021.3 hPa
Clouds: Clear
Visibility: 10 miles , 16 km
2020/08/07 14:55 KEZS 071455Z AUTO 00000KT 10SM CLR 23/17 A3016 RMK AO2 T02280168
 
KAIG - Antigo/Langlade, Wisconsin, USA
Distance from station: WSW 51mi, 82km
Updated: Fri, 07-Aug-2020 9:55am CDT
Clear
Clear
 Wind from S
Wind: S 8 mph , 13 km/h
Temperature: 72°F , 22°C
Dew Point: 59°F , 15°C
Humidity: 65%
Barometer: 30.17 inHg , 1021.7 hPa
Clouds: Clear
Visibility: 10 miles , 16 km
2020/08/07 14:55 KAIG 071455Z AUTO 17007KT 10SM CLR 22/15 A3017 RMK AO2 T02160151
KSUE - Sturgeon Bay, Wisconsin, USA
Distance from station: SE 51mi, 82km
Updated: Fri, 07-Aug-2020 9:56am CDT
Clear
Clear
 Wind from SSW
Wind: SSW 8 mph , 13 km/h
Temperature: 73°F , 23°C
Dew Point: 54°F , 12°C
Humidity: 50%
Barometer: 30.18 inHg , 1022 hPa
Clouds: Clear
Visibility: 10 miles , 16 km
2020/08/07 14:56 KSUE 071456Z AUTO 20007KT 10SM CLR 23/12 A3018 RMK AO2 SLP214 T02280122 58000
 
KESC - Escanaba, Michigan, USA
Distance from station: ENE 56mi, 90km
Updated: Fri, 07-Aug-2020 9:56am CDT
Clear
Clear
 Wind from SSE
Wind: SSE 8 mph , 13 km/h
Temperature: 73°F , 23°C
Dew Point: 57°F , 14°C
Humidity: 57%
Barometer: 30.16 inHg , 1021.3 hPa
Clouds: Clear
Visibility: 8 miles , 13 km
2020/08/07 14:56 KESC 071456Z AUTO 15007KT 8SM CLR 23/14 A3016 RMK AO2 SLP213 T02280139 58002
KCLI - Clintonville, Wisconsin, USA
Distance from station: SSW 62mi, 99km
Updated: Fri, 07-Aug-2020 9:55am CDT
Clear
Clear
 Wind from SSW
Wind: SSW 3 mph , 6 km/h
Temperature: 72°F , 22°C
Dew Point: 59°F , 15°C
Humidity: 65%
Barometer: 30.16 inHg , 1021.3 hPa
Clouds: Clear
Visibility: 10 miles , 16 km
2020/08/07 14:55 KCLI 071455Z AUTO 20003KT 10SM CLR 22/15 A3016 RMK AO2 T02190153
 
KGRB - Ashwaubenon, Wisconsin, USA
Distance from station: S 63mi, 102km
Updated: Fri, 07-Aug-2020 9:53am CDT
Clear
Clear
 Wind from SSE
Wind: SSE 7 mph , 11 km/h
Temperature: 73°F , 23°C
Dew Point: 61°F , 16°C
Humidity: 65%
Barometer: 30.16 inHg , 1021.3 hPa
Clouds: Clear
Visibility: 10 miles , 16 km
2020/08/07 14:53 KGRB 071453Z 16006KT 10SM CLR 23/16 A3016 RMK AO2 SLP212 T02280156 58002
KEGV - Eagle River, Wisconsin, USA
Distance from station: NW 66mi, 107km
Updated: Fri, 07-Aug-2020 9:55am CDT
Clear
Clear
 Wind from SSW
Wind: SSW 8 mph , 13 km/h
Temperature: 72°F , 22°C
Dew Point: 57°F , 14°C
Humidity: 61%
Barometer: 30.13 inHg , 1020.3 hPa
Clouds: Clear
Visibility: 10 miles , 16 km
2020/08/07 14:55 KEGV 071455Z AUTO 20007KT 140V240 10SM CLR 22/14 A3013 RMK AO2 T02220136
 
KRHI - Rhinelander, Wisconsin, USA
Distance from station: WNW 68mi, 109km
Updated: Fri, 07-Aug-2020 9:53am CDT
Clear
Clear
 Wind from S
Wind: S 9 mph , 15 km/h
Temperature: 72°F , 22°C
Dew Point: 57°F , 14°C
Humidity: 61%
Barometer: 30.15 inHg , 1021 hPa
Clouds: Clear
Visibility: 10 miles , 16 km
2020/08/07 14:53 KRHI 071453Z AUTO 19008KT 10SM CLR 22/14 A3015 RMK AO2 SLP205 T02220139 56003
KLNL - Land O Lakes, Wisconsin, USA
Distance from station: NW 74mi, 119km
Updated: Fri, 07-Aug-2020 9:55am CDT
Clear
Clear
 Wind from SSW
Wind: SSW 7 mph , 11 km/h
Temperature: 72°F , 22°C
Dew Point: 57°F , 14°C
Humidity: 61%
Barometer: 30.15 inHg , 1021 hPa
Clouds: Clear
Visibility: 10 miles , 16 km
2020/08/07 14:55 KLNL 071455Z AUTO 20006KT 10SM CLR 22/14 A3015 RMK AO2 T02230139
 
KSAW - Gwinn/Sawyer, Michigan, USA
Distance from station: NNE 74mi, 120km
Updated: Fri, 07-Aug-2020 9:45am CDT
Clear
Clear
 Wind from SSW
Wind: SSW 10 mph , 17 km/h
Temperature: 72°F , 22°C
Dew Point: 57°F , 14°C
Humidity: 61%
Barometer: 30.15 inHg , 1021 hPa
Clouds: Clear
Visibility: 10 miles , 16 km
2020/08/07 14:45 KSAW 071445Z 20009KT 10SM SKC 22/14 A3015